This is the latest recevied weather packets stored in our database for station/object HS3UAA-1. If no packets are shown the sender has not sent any weather packets the latest 10 day(s).
| Time | Temp. | Humidity | Pressure | Rain* | Wind** | Luminosity | Snow |
|---|---|---|---|---|---|---|---|
| 1787763471 | 33.33° C | 46% | 996 hPa | - | - | 0 W/m² | - |
| 1787763149 | 33.33° C | 46% | 996 hPa | - | - | 0 W/m² | - |
| 1787762827 | 33.33° C | 46% | 996 hPa | - | - | 0 W/m² | - |
| 1787762506 | 33.33° C | 46% | 996 hPa | - | - | 0 W/m² | - |
| 1787762184 | 33.33° C | 46% | 996 hPa | - | - | 0 W/m² | - |
| 1787761861 | 33.33° C | 46% | 996 hPa | - | - | 0 W/m² | - |
| 1787761539 | 33.33° C | 46% | 996 hPa | - | - | 0 W/m² | - |
| 1787761217 | 33.89° C | 45% | 996 hPa | - | - | 0 W/m² | - |
| 1787760895 | 33.89° C | 45% | 996 hPa | - | - | 0 W/m² | - |
| 1787760573 | 33.33° C | 45% | 996 hPa | - | - | 0 W/m² | - |
| 1787760251 | 33.33° C | 45% | 996 hPa | - | - | 0 W/m² | - |
| 1787759929 | 34.44° C | 44% | 996 hPa | - | - | 0 W/m² | - |
| 1787759607 | 33.33° C | 45% | 996 hPa | - | - | 0 W/m² | - |
| 1787759285 | 33.33° C | 45% | 997 hPa | - | - | 0 W/m² | - |
| 1787758963 | 33.89° C | 45% | 997 hPa | - | - | 0 W/m² | - |
| 1787758641 | 34.44° C | 43% | 997 hPa | - | - | 0 W/m² | - |
| 1787758318 | 33.89° C | 45% | 997 hPa | - | - | 0 W/m² | - |
| 1787757996 | 33.33° C | 45% | 997 hPa | - | - | 0 W/m² | - |
| 1787757674 | 33.33° C | 45% | 997 hPa | - | - | 0 W/m² | - |
| 1787757352 | 35° C | 42% | 997 hPa | - | - | 0 W/m² | - |
| 1787757030 | 33.33° C | 46% | 997 hPa | - | - | 0 W/m² | - |
| 1787756708 | 33.33° C | 45% | 997 hPa | - | - | 0 W/m² | - |
| 1787756386 | 33.33° C | 45% | 997 hPa | - | - | 0 W/m² | - |
| 1787756064 | 34.44° C | 43% | 997 hPa | - | - | 0 W/m² | - |
| 1787755742 | 33.33° C | 45% | 996 hPa | - | - | 0 W/m² | - |
* Rain since midnight (hover to see other rain measurements)
** Current wind speed in m/s (hover to see current wind gust speed)